sensor_id;sensor_type;location;lat;lon;timestamp;pressure;altitude;pressure_sealevel;temperature;humidity
58658;BME280;44428;45.630;13.786;2023-03-03T00:00:49;101429.13;;;7.69;65.49
58658;BME280;44428;45.630;13.786;2023-03-03T00:03:22;101432.78;;;7.65;65.38
58658;BME280;44428;45.630;13.786;2023-03-03T00:05:49;101431.25;;;7.61;65.87
58658;BME280;44428;45.630;13.786;2023-03-03T00:08:16;101421.16;;;7.52;66.19
58658;BME280;44428;45.630;13.786;2023-03-03T00:10:43;101423.13;;;7.47;66.48
58658;BME280;44428;45.630;13.786;2023-03-03T00:13:22;101420.00;;;7.39;66.59
58658;BME280;44428;45.630;13.786;2023-03-03T00:15:49;101420.16;;;7.36;67.26
58658;BME280;44428;45.630;13.786;2023-03-03T00:18:23;101421.56;;;7.43;66.66
58658;BME280;44428;45.630;13.786;2023-03-03T00:20:53;101414.63;;;7.42;66.83
58658;BME280;44428;45.630;13.786;2023-03-03T00:25:53;101399.53;;;7.26;67.54
58658;BME280;44428;45.630;13.786;2023-03-03T00:28:44;101402.44;;;7.20;67.68
58658;BME280;44428;45.630;13.786;2023-03-03T00:31:16;101404.53;;;7.51;66.38
58658;BME280;44428;45.630;13.786;2023-03-03T00:33:51;101394.84;;;7.52;66.26
58658;BME280;44428;45.630;13.786;2023-03-03T00:36:32;101403.38;;;7.57;65.99
58658;BME280;44428;45.630;13.786;2023-03-03T00:39:30;101403.69;;;7.51;66.27
58658;BME280;44428;45.630;13.786;2023-03-03T00:41:58;101397.56;;;7.50;66.24
58658;BME280;44428;45.630;13.786;2023-03-03T00:44:31;101405.50;;;7.49;66.57
58658;BME280;44428;45.630;13.786;2023-03-03T00:47:34;101402.09;;;7.47;66.67
58658;BME280;44428;45.630;13.786;2023-03-03T00:52:38;101405.38;;;7.52;66.37
58658;BME280;44428;45.630;13.786;2023-03-03T00:55:07;101391.28;;;7.53;66.57
58658;BME280;44428;45.630;13.786;2023-03-03T00:57:33;101393.31;;;7.48;66.81
58658;BME280;44428;45.630;13.786;2023-03-03T01:00:00;101386.47;;;7.44;66.86
58658;BME280;44428;45.630;13.786;2023-03-03T01:02:30;101383.34;;;7.36;67.39
58658;BME280;44428;45.630;13.786;2023-03-03T01:04:56;101382.03;;;7.25;67.96
58658;BME280;44428;45.630;13.786;2023-03-03T01:07:22;101387.03;;;7.31;67.95
58658;BME280;44428;45.630;13.786;2023-03-03T01:09:49;101377.72;;;7.24;68.37
58658;BME280;44428;45.630;13.786;2023-03-03T01:12:17;101382.47;;;7.16;68.63
58658;BME280;44428;45.630;13.786;2023-03-03T01:14:43;101374.06;;;7.08;69.07
58658;BME280;44428;45.630;13.786;2023-03-03T01:17:12;101370.94;;;7.00;69.25
58658;BME280;44428;45.630;13.786;2023-03-03T01:19:38;101371.50;;;6.87;70.24
58658;BME280;44428;45.630;13.786;2023-03-03T01:22:05;101375.16;;;6.83;70.65
58658;BME280;44428;45.630;13.786;2023-03-03T01:24:32;101374.88;;;6.89;70.13
58658;BME280;44428;45.630;13.786;2023-03-03T01:27:00;101369.78;;;6.86;70.61
58658;BME280;44428;45.630;13.786;2023-03-03T01:29:26;101373.47;;;6.82;70.62
58658;BME280;44428;45.630;13.786;2023-03-03T01:31:53;101368.47;;;6.76;70.55
58658;BME280;44428;45.630;13.786;2023-03-03T01:34:19;101361.41;;;6.78;71.13
58658;BME280;44428;45.630;13.786;2023-03-03T01:36:45;101363.22;;;6.76;70.85
58658;BME280;44428;45.630;13.786;2023-03-03T01:39:12;101372.66;;;6.80;71.10
58658;BME280;44428;45.630;13.786;2023-03-03T01:41:40;101364.94;;;6.77;71.03
58658;BME280;44428;45.630;13.786;2023-03-03T01:44:15;101361.53;;;6.75;71.55
58658;BME280;44428;45.630;13.786;2023-03-03T01:49:21;101363.63;;;6.87;71.24
58658;BME280;44428;45.630;13.786;2023-03-03T01:51:53;101364.53;;;6.86;70.95
58658;BME280;44428;45.630;13.786;2023-03-03T01:54:35;101362.56;;;6.92;70.70
58658;BME280;44428;45.630;13.786;2023-03-03T01:57:05;101360.44;;;7.00;70.61
58658;BME280;44428;45.630;13.786;2023-03-03T01:59:40;101363.69;;;7.05;70.46
58658;BME280;44428;45.630;13.786;2023-03-03T02:02:09;101363.69;;;7.05;70.39
58658;BME280;44428;45.630;13.786;2023-03-03T02:04:37;101350.66;;;7.03;70.32
58658;BME280;44428;45.630;13.786;2023-03-03T02:07:07;101347.94;;;7.05;70.02
58658;BME280;44428;45.630;13.786;2023-03-03T02:09:47;101355.56;;;7.11;69.91
58658;BME280;44428;45.630;13.786;2023-03-03T02:12:17;101345.25;;;7.06;70.04
58658;BME280;44428;45.630;13.786;2023-03-03T02:14:45;101342.94;;;6.99;70.50
58658;BME280;44428;45.630;13.786;2023-03-03T02:17:12;101344.81;;;6.97;70.57
58658;BME280;44428;45.630;13.786;2023-03-03T02:20:06;101348.22;;;6.99;70.28
58658;BME280;44428;45.630;13.786;2023-03-03T02:22:46;101334.16;;;7.00;70.80
58658;BME280;44428;45.630;13.786;2023-03-03T02:25:25;101335.34;;;6.93;71.06
58658;BME280;44428;45.630;13.786;2023-03-03T02:27:53;101339.41;;;7.00;70.50
58658;BME280;44428;45.630;13.786;2023-03-03T02:30:23;101342.66;;;7.05;70.75
58658;BME280;44428;45.630;13.786;2023-03-03T02:32:50;101342.94;;;6.99;70.80
58658;BME280;44428;45.630;13.786;2023-03-03T02:38:01;101325.06;;;7.07;70.89
58658;BME280;44428;45.630;13.786;2023-03-03T02:40:33;101321.66;;;7.05;70.91
58658;BME280;44428;45.630;13.786;2023-03-03T02:43:05;101322.06;;;6.96;71.27
58658;BME280;44428;45.630;13.786;2023-03-03T02:45:32;101321.25;;;7.14;70.21
58658;BME280;44428;45.630;13.786;2023-03-03T02:47:58;101322.66;;;7.21;70.02
58658;BME280;44428;45.630;13.786;2023-03-03T02:50:25;101315.72;;;7.20;70.02
58658;BME280;44428;45.630;13.786;2023-03-03T02:52:51;101314.84;;;7.20;70.11
58658;BME280;44428;45.630;13.786;2023-03-03T02:55:18;101299.72;;;7.06;70.89
58658;BME280;44428;45.630;13.786;2023-03-03T02:57:45;101302.34;;;7.06;71.01
58658;BME280;44428;45.630;13.786;2023-03-03T03:00:11;101307.09;;;6.98;71.18
58658;BME280;44428;45.630;13.786;2023-03-03T03:02:38;101304.47;;;6.98;71.09
58658;BME280;44428;45.630;13.786;2023-03-03T03:05:05;101306.31;;;6.96;71.19
58658;BME280;44428;45.630;13.786;2023-03-03T03:07:34;101308.88;;;6.97;71.31
58658;BME280;44428;45.630;13.786;2023-03-03T03:10:02;101309.72;;;6.98;71.21
58658;BME280;44428;45.630;13.786;2023-03-03T03:12:31;101307.75;;;7.03;71.24
58658;BME280;44428;45.630;13.786;2023-03-03T03:14:58;101301.06;;;6.96;71.36
58658;BME280;44428;45.630;13.786;2023-03-03T03:17:25;101303.19;;;6.87;71.67
58658;BME280;44428;45.630;13.786;2023-03-03T03:19:53;101302.63;;;6.81;72.24
58658;BME280;44428;45.630;13.786;2023-03-03T03:22:21;101310.84;;;6.73;72.47
58658;BME280;44428;45.630;13.786;2023-03-03T03:24:48;101307.00;;;6.80;72.40
58658;BME280;44428;45.630;13.786;2023-03-03T03:27:15;101313.72;;;6.87;72.15
58658;BME280;44428;45.630;13.786;2023-03-03T03:29:41;101311.38;;;7.00;71.30
58658;BME280;44428;45.630;13.786;2023-03-03T03:32:09;101308.31;;;6.91;72.01
58658;BME280;44428;45.630;13.786;2023-03-03T03:34:36;101308.72;;;6.81;72.16
58658;BME280;44428;45.630;13.786;2023-03-03T03:37:03;101316.59;;;6.81;72.11
58658;BME280;44428;45.630;13.786;2023-03-03T03:39:30;101308.16;;;6.75;72.30
58658;BME280;44428;45.630;13.786;2023-03-03T03:41:57;101303.88;;;6.72;72.55
58658;BME280;44428;45.630;13.786;2023-03-03T03:44:23;101307.28;;;6.74;72.56
58658;BME280;44428;45.630;13.786;2023-03-03T03:46:50;101307.41;;;6.71;72.74
58658;BME280;44428;45.630;13.786;2023-03-03T03:49:20;101307.81;;;6.62;73.00
58658;BME280;44428;45.630;13.786;2023-03-03T03:51:50;101300.88;;;6.61;73.21
58658;BME280;44428;45.630;13.786;2023-03-03T03:54:22;101302.72;;;6.59;73.43
58658;BME280;44428;45.630;13.786;2023-03-03T03:56:49;101301.00;;;6.58;73.80
58658;BME280;44428;45.630;13.786;2023-03-03T03:59:15;101308.38;;;6.50;73.53
58658;BME280;44428;45.630;13.786;2023-03-03T04:01:42;101307.78;;;6.43;74.29
58658;BME280;44428;45.630;13.786;2023-03-03T04:04:08;101298.41;;;6.37;74.43
58658;BME280;44428;45.630;13.786;2023-03-03T04:06:35;101302.09;;;6.33;74.55
58658;BME280;44428;45.630;13.786;2023-03-03T04:09:05;101308.38;;;6.29;74.73
58658;BME280;44428;45.630;13.786;2023-03-03T04:11:34;101300.75;;;6.23;75.23
58658;BME280;44428;45.630;13.786;2023-03-03T04:14:02;101302.75;;;6.18;75.67
58658;BME280;44428;45.630;13.786;2023-03-03T04:16:29;101301.28;;;6.11;76.17
58658;BME280;44428;45.630;13.786;2023-03-03T04:18:55;101294.22;;;6.13;76.38
58658;BME280;44428;45.630;13.786;2023-03-03T04:21:22;101299.59;;;6.10;76.73
58658;BME280;44428;45.630;13.786;2023-03-03T04:23:52;101292.63;;;6.09;76.64
58658;BME280;44428;45.630;13.786;2023-03-03T04:26:19;101290.91;;;6.08;76.64
58658;BME280;44428;45.630;13.786;2023-03-03T04:28:47;101290.91;;;6.08;76.53
58658;BME280;44428;45.630;13.786;2023-03-03T04:31:15;101291.03;;;6.05;76.74
58658;BME280;44428;45.630;13.786;2023-03-03T04:33:42;101283.56;;;5.95;77.09
58658;BME280;44428;45.630;13.786;2023-03-03T04:36:08;101296.78;;;5.92;77.65
58658;BME280;44428;45.630;13.786;2023-03-03T04:38:36;101288.13;;;5.90;77.86
58658;BME280;44428;45.630;13.786;2023-03-03T04:41:02;101289.84;;;5.91;78.11
58658;BME280;44428;45.630;13.786;2023-03-03T04:43:33;101276.63;;;5.94;77.59
58658;BME280;44428;45.630;13.786;2023-03-03T04:46:03;101284.22;;;6.01;77.64
58658;BME280;44428;45.630;13.786;2023-03-03T04:48:30;101282.41;;;6.03;77.20
58658;BME280;44428;45.630;13.786;2023-03-03T04:50:56;101279.13;;;5.97;77.89
58658;BME280;44428;45.630;13.786;2023-03-03T04:53:25;101275.69;;;5.95;77.83
58658;BME280;44428;45.630;13.786;2023-03-03T04:55:52;101283.31;;;6.02;77.36
58658;BME280;44428;45.630;13.786;2023-03-03T04:58:20;101280.41;;;6.08;76.84
58658;BME280;44428;45.630;13.786;2023-03-03T05:00:54;101285.53;;;6.11;76.69
58658;BME280;44428;45.630;13.786;2023-03-03T05:03:22;101285.53;;;6.11;77.01
58658;BME280;44428;45.630;13.786;2023-03-03T05:05:52;101283.72;;;6.13;76.91
58658;BME280;44428;45.630;13.786;2023-03-03T05:08:19;101279.75;;;6.23;76.19
58658;BME280;44428;45.630;13.786;2023-03-03T05:10:45;101277.94;;;6.25;76.13
58658;BME280;44428;45.630;13.786;2023-03-03T05:13:12;101274.38;;;6.26;75.83
58658;BME280;44428;45.630;13.786;2023-03-03T05:15:40;101271.00;;;6.24;76.15
58658;BME280;44428;45.630;13.786;2023-03-03T05:18:06;101269.41;;;6.20;76.94
58658;BME280;44428;45.630;13.786;2023-03-03T05:20:33;101276.63;;;6.15;77.06
58658;BME280;44428;45.630;13.786;2023-03-03T05:23:01;101282.16;;;6.09;77.33
58658;BME280;44428;45.630;13.786;2023-03-03T05:25:28;101266.53;;;6.06;77.57
58658;BME280;44428;45.630;13.786;2023-03-03T05:27:54;101272.63;;;6.06;78.11
58658;BME280;44428;45.630;13.786;2023-03-03T05:30:22;101283.59;;;6.16;77.43
58658;BME280;44428;45.630;13.786;2023-03-03T05:32:48;101272.69;;;6.25;77.16
58658;BME280;44428;45.630;13.786;2023-03-03T05:35:15;101276.09;;;6.27;76.75
58658;BME280;44428;45.630;13.786;2023-03-03T05:37:41;101268.53;;;6.40;76.54
58658;BME280;44428;45.630;13.786;2023-03-03T05:40:15;101274.19;;;6.51;75.78
58658;BME280;44428;45.630;13.786;2023-03-03T05:42:41;101269.78;;;6.52;75.78
58658;BME280;44428;45.630;13.786;2023-03-03T05:45:09;101267.41;;;6.66;75.45
58658;BME280;44428;45.630;13.786;2023-03-03T05:47:37;101265.50;;;6.88;74.18
58658;BME280;44428;45.630;13.786;2023-03-03T05:50:05;101269.53;;;6.96;74.03
58658;BME280;44428;45.630;13.786;2023-03-03T05:52:32;101269.25;;;7.02;73.88
58658;BME280;44428;45.630;13.786;2023-03-03T05:55:00;101269.25;;;7.02;73.76
58658;BME280;44428;45.630;13.786;2023-03-03T05:57:30;101276.09;;;7.06;73.81
58658;BME280;44428;45.630;13.786;2023-03-03T05:59:56;101267.13;;;7.10;73.29
58658;BME280;44428;45.630;13.786;2023-03-03T06:02:22;101263.91;;;7.22;72.41
58658;BME280;44428;45.630;13.786;2023-03-03T06:04:49;101272.94;;;7.53;70.96
58658;BME280;44428;45.630;13.786;2023-03-03T06:07:15;101282.41;;;7.57;70.93
58658;BME280;44428;45.630;13.786;2023-03-03T06:09:42;101282.13;;;7.80;69.55
58658;BME280;44428;45.630;13.786;2023-03-03T06:12:10;101288.16;;;7.83;69.26
58658;BME280;44428;45.630;13.786;2023-03-03T06:14:36;101276.19;;;7.94;68.58
58658;BME280;44428;45.630;13.786;2023-03-03T06:17:03;101285.41;;;8.03;68.07
58658;BME280;44428;45.630;13.786;2023-03-03T06:19:29;101286.25;;;8.03;68.02
58658;BME280;44428;45.630;13.786;2023-03-03T06:21:56;101304.28;;;8.11;67.96
58658;BME280;44428;45.630;13.786;2023-03-03T06:24:22;101296.38;;;8.29;67.11
58658;BME280;44428;45.630;13.786;2023-03-03T06:26:58;101302.75;;;8.42;66.55
58658;BME280;44428;45.630;13.786;2023-03-03T06:29:25;101314.66;;;8.49;66.11
58658;BME280;44428;45.630;13.786;2023-03-03T06:31:51;101300.94;;;8.60;65.86
58658;BME280;44428;45.630;13.786;2023-03-03T06:34:17;101307.84;;;8.62;66.13
58658;BME280;44428;45.630;13.786;2023-03-03T06:36:44;101312.16;;;8.63;65.86
58658;BME280;44428;45.630;13.786;2023-03-03T06:39:11;101318.97;;;8.67;65.71
58658;BME280;44428;45.630;13.786;2023-03-03T06:41:39;101321.22;;;8.75;65.29
58658;BME280;44428;45.630;13.786;2023-03-03T06:44:05;101323.75;;;8.77;64.99
58658;BME280;44428;45.630;13.786;2023-03-03T06:46:31;101334.66;;;8.86;64.78
58658;BME280;44428;45.630;13.786;2023-03-03T06:48:58;101337.06;;;8.91;64.71
58658;BME280;44428;45.630;13.786;2023-03-03T06:51:33;101351.69;;;8.97;64.18
58658;BME280;44428;45.630;13.786;2023-03-03T06:54:16;101340.56;;;9.07;63.91
58658;BME280;44428;45.630;13.786;2023-03-03T06:56:44;101348.63;;;9.04;63.97
58658;BME280;44428;45.630;13.786;2023-03-03T06:59:19;101345.84;;;9.07;63.71
58658;BME280;44428;45.630;13.786;2023-03-03T07:01:47;101356.66;;;9.18;63.15
58658;BME280;44428;45.630;13.786;2023-03-03T07:04:31;101338.97;;;9.21;62.99
58658;BME280;44428;45.630;13.786;2023-03-03T07:07:14;101350.34;;;9.05;63.46
58658;BME280;44428;45.630;13.786;2023-03-03T07:09:46;101356.81;;;9.15;63.18
58658;BME280;44428;45.630;13.786;2023-03-03T07:12:17;101350.53;;;9.18;63.03
58658;BME280;44428;45.630;13.786;2023-03-03T07:14:49;101347.31;;;9.29;62.39
58658;BME280;44428;45.630;13.786;2023-03-03T07:17:23;101342.91;;;9.29;62.44
58658;BME280;44428;45.630;13.786;2023-03-03T07:19:50;101346.50;;;9.44;61.62
58658;BME280;44428;45.630;13.786;2023-03-03T07:22:20;101358.06;;;9.57;61.34
58658;BME280;44428;45.630;13.786;2023-03-03T07:24:51;101367.09;;;9.53;61.15
58658;BME280;44428;45.630;13.786;2023-03-03T07:29:46;101354.47;;;9.58;61.13
58658;BME280;44428;45.630;13.786;2023-03-03T07:32:41;101340.94;;;9.64;60.27
58658;BME280;44428;45.630;13.786;2023-03-03T07:37:52;101335.91;;;9.76;59.83
58658;BME280;44428;45.630;13.786;2023-03-03T07:40:34;101350.97;;;9.90;59.68
58658;BME280;44428;45.630;13.786;2023-03-03T07:43:34;101352.19;;;9.98;59.08
58658;BME280;44428;45.630;13.786;2023-03-03T07:46:45;101347.94;;;10.12;58.81
58658;BME280;44428;45.630;13.786;2023-03-03T07:49:47;101343.41;;;10.14;58.71
58658;BME280;44428;45.630;13.786;2023-03-03T07:52:24;101342.28;;;10.18;58.86
58658;BME280;44428;45.630;13.786;2023-03-03T07:54:52;101345.72;;;10.20;58.43
58658;BME280;44428;45.630;13.786;2023-03-03T07:59:59;101344.09;;;10.17;58.29
58658;BME280;44428;45.630;13.786;2023-03-03T08:02:36;101354.72;;;10.16;58.41
58658;BME280;44428;45.630;13.786;2023-03-03T08:05:32;101349.25;;;10.19;58.52
58658;BME280;44428;45.630;13.786;2023-03-03T08:13:18;101352.00;;;10.17;58.60
58658;BME280;44428;45.630;13.786;2023-03-03T08:15:51;101361.38;;;10.23;58.57
58658;BME280;44428;45.630;13.786;2023-03-03T08:18:42;101349.72;;;10.27;58.10
58658;BME280;44428;45.630;13.786;2023-03-03T08:21:15;101353.84;;;10.31;58.28
58658;BME280;44428;45.630;13.786;2023-03-03T08:23:44;101362.38;;;10.36;58.00
58658;BME280;44428;45.630;13.786;2023-03-03T08:26:11;101354.25;;;10.39;57.89
58658;BME280;44428;45.630;13.786;2023-03-03T08:28:38;101354.66;;;10.47;57.82
58658;BME280;44428;45.630;13.786;2023-03-03T08:31:07;101351.47;;;10.57;57.86
58658;BME280;44428;45.630;13.786;2023-03-03T08:33:33;101356.59;;;10.60;57.73
58658;BME280;44428;45.630;13.786;2023-03-03T08:35:59;101369.13;;;10.56;58.03
58658;BME280;44428;45.630;13.786;2023-03-03T08:38:26;101353.38;;;10.69;57.84
58658;BME280;44428;45.630;13.786;2023-03-03T08:40:52;101359.69;;;10.66;57.74
58658;BME280;44428;45.630;13.786;2023-03-03T08:43:20;101351.09;;;10.77;57.96
58658;BME280;44428;45.630;13.786;2023-03-03T08:45:49;101358.50;;;10.86;57.65
58658;BME280;44428;45.630;13.786;2023-03-03T08:48:16;101352.44;;;10.84;57.16
58658;BME280;44428;45.630;13.786;2023-03-03T08:50:43;101357.72;;;10.84;57.42
58658;BME280;44428;45.630;13.786;2023-03-03T08:53:10;101358.00;;;10.94;57.14
58658;BME280;44428;45.630;13.786;2023-03-03T08:55:37;101365.69;;;10.98;57.03
58658;BME280;44428;45.630;13.786;2023-03-03T08:58:03;101366.81;;;11.09;56.55
58658;BME280;44428;45.630;13.786;2023-03-03T09:00:29;101375.50;;;11.11;56.53
58658;BME280;44428;45.630;13.786;2023-03-03T09:02:56;101373.22;;;11.19;56.24
58658;BME280;44428;45.630;13.786;2023-03-03T09:05:23;101373.22;;;11.19;55.98
58658;BME280;44428;45.630;13.786;2023-03-03T09:07:51;101392.31;;;11.24;55.81
58658;BME280;44428;45.630;13.786;2023-03-03T09:10:21;101394.56;;;11.16;56.07
58658;BME280;44428;45.630;13.786;2023-03-03T09:12:52;101390.63;;;11.23;55.86
58658;BME280;44428;45.630;13.786;2023-03-03T09:15:29;101394.19;;;11.22;56.14
58658;BME280;44428;45.630;13.786;2023-03-03T09:18:16;101402.69;;;11.27;55.72
58658;BME280;44428;45.630;13.786;2023-03-03T09:20:48;101405.53;;;11.38;55.25
58658;BME280;44428;45.630;13.786;2023-03-03T09:25:50;101404.50;;;11.41;55.26
58658;BME280;44428;45.630;13.786;2023-03-03T09:28:31;101408.31;;;11.50;55.47
58658;BME280;44428;45.630;13.786;2023-03-03T09:30:59;101419.50;;;11.40;55.26
58658;BME280;44428;45.630;13.786;2023-03-03T09:36:23;101420.25;;;11.57;55.35
58658;BME280;44428;45.630;13.786;2023-03-03T09:38:50;101410.03;;;11.51;55.19
58658;BME280;44428;45.630;13.786;2023-03-03T09:44:25;101411.34;;;11.58;54.46
58658;BME280;44428;45.630;13.786;2023-03-03T09:50:27;101414.56;;;11.63;54.46
58658;BME280;44428;45.630;13.786;2023-03-03T10:15:29;101434.59;;;11.53;55.01
58658;BME280;44428;45.630;13.786;2023-03-03T10:18:22;101429.69;;;11.61;55.16
58658;BME280;44428;45.630;13.786;2023-03-03T10:21:03;101427.03;;;11.61;56.01
58658;BME280;44428;45.630;13.786;2023-03-03T10:32:37;101442.25;;;11.57;55.58
58658;BME280;44428;45.630;13.786;2023-03-03T10:40:48;101428.56;;;11.65;55.49
58658;BME280;44428;45.630;13.786;2023-03-03T10:46:53;101426.22;;;12.02;55.72
58658;BME280;44428;45.630;13.786;2023-03-03T10:52:38;101421.00;;;12.27;54.18
58658;BME280;44428;45.630;13.786;2023-03-03T11:08:57;101414.44;;;12.20;54.68
58658;BME280;44428;45.630;13.786;2023-03-03T11:11:58;101416.22;;;12.47;53.61
58658;BME280;44428;45.630;13.786;2023-03-03T11:14:32;101410.72;;;12.63;52.65
58658;BME280;44428;45.630;13.786;2023-03-03T11:30:34;101401.69;;;15.08;45.03
58658;BME280;44428;45.630;13.786;2023-03-03T11:33:47;101408.94;;;15.06;44.66
58658;BME280;44428;45.630;13.786;2023-03-03T11:36:08;101411.59;;;15.06;44.73
58658;BME280;44428;45.630;13.786;2023-03-03T11:38:44;101395.91;;;15.26;43.80
58658;BME280;44428;45.630;13.786;2023-03-03T11:44:07;101384.72;;;16.09;42.14
58658;BME280;44428;45.630;13.786;2023-03-03T11:46:45;101362.16;;;18.56;37.02
58658;BME280;44428;45.630;13.786;2023-03-03T11:49:35;101382.16;;;20.45;33.39
58658;BME280;44428;45.630;13.786;2023-03-03T11:52:27;101379.75;;;20.16;33.46
58658;BME280;44428;45.630;13.786;2023-03-03T12:00:42;101372.19;;;17.05;38.16
58658;BME280;44428;45.630;13.786;2023-03-03T12:03:18;101371.78;;;16.05;39.93
58658;BME280;44428;45.630;13.786;2023-03-03T12:05:54;101361.97;;;15.50;41.28
58658;BME280;44428;45.630;13.786;2023-03-03T12:11:31;101356.38;;;15.76;41.14
58658;BME280;44428;45.630;13.786;2023-03-03T12:16:54;101363.69;;;15.06;42.77
58658;BME280;44428;45.630;13.786;2023-03-03T12:33:55;101348.66;;;15.39;42.11
58658;BME280;44428;45.630;13.786;2023-03-03T12:45:32;101358.13;;;15.32;42.20
58658;BME280;44428;45.630;13.786;2023-03-03T12:51:41;101350.59;;;14.70;43.25
58658;BME280;44428;45.630;13.786;2023-03-03T13:00:13;101334.84;;;14.55;42.70
58658;BME280;44428;45.630;13.786;2023-03-03T13:06:13;101341.38;;;14.16;43.81
58658;BME280;44428;45.630;13.786;2023-03-03T13:17:35;101347.34;;;13.71;44.61
58658;BME280;44428;45.630;13.786;2023-03-03T13:22:49;101354.78;;;13.66;44.79
58658;BME280;44428;45.630;13.786;2023-03-03T13:28:27;101347.34;;;13.71;45.20
58658;BME280;44428;45.630;13.786;2023-03-03T13:31:08;101347.63;;;13.80;45.11
58658;BME280;44428;45.630;13.786;2023-03-03T13:33:39;101354.25;;;13.98;44.74
58658;BME280;44428;45.630;13.786;2023-03-03T13:36:15;101349.47;;;14.14;44.71
58658;BME280;44428;45.630;13.786;2023-03-03T13:38:48;101348.03;;;14.10;44.66
58658;BME280;44428;45.630;13.786;2023-03-03T13:41:22;101366.63;;;14.21;44.28
58658;BME280;44428;45.630;13.786;2023-03-03T13:52:28;101389.88;;;14.07;44.30
58658;BME280;44428;45.630;13.786;2023-03-03T13:55:27;101364.06;;;13.85;45.36
58658;BME280;44428;45.630;13.786;2023-03-03T13:58:09;101359.34;;;14.01;44.74
58658;BME280;44428;45.630;13.786;2023-03-03T14:01:05;101364.41;;;14.04;44.82
58658;BME280;44428;45.630;13.786;2023-03-03T14:04:04;101356.94;;;14.09;44.73
58658;BME280;44428;45.630;13.786;2023-03-03T14:06:31;101340.84;;;14.35;44.33
58658;BME280;44428;45.630;13.786;2023-03-03T14:11:47;101331.03;;;14.82;43.28
58658;BME280;44428;45.630;13.786;2023-03-03T14:17:03;101333.69;;;14.71;43.29
58658;BME280;44428;45.630;13.786;2023-03-03T14:19:39;101337.44;;;14.68;43.34
58658;BME280;44428;45.630;13.786;2023-03-03T14:22:21;101334.66;;;14.70;42.95
58658;BME280;44428;45.630;13.786;2023-03-03T14:25:03;101343.00;;;14.65;43.42
58658;BME280;44428;45.630;13.786;2023-03-03T14:33:00;101342.53;;;14.36;44.10
58658;BME280;44428;45.630;13.786;2023-03-03T14:41:18;101348.13;;;13.85;45.35
58658;BME280;44428;45.630;13.786;2023-03-03T14:43:55;101344.63;;;13.60;45.90
58658;BME280;44428;45.630;13.786;2023-03-03T14:48:54;101334.91;;;13.48;46.72
58658;BME280;44428;45.630;13.786;2023-03-03T14:51:47;101340.44;;;13.45;46.42
58658;BME280;44428;45.630;13.786;2023-03-03T14:54:23;101359.13;;;13.31;46.75
58658;BME280;44428;45.630;13.786;2023-03-03T14:57:04;101352.56;;;13.23;46.82
58658;BME280;44428;45.630;13.786;2023-03-03T14:59:32;101348.66;;;13.16;46.61
58658;BME280;44428;45.630;13.786;2023-03-03T15:02:26;101345.03;;;13.17;47.08
58658;BME280;44428;45.630;13.786;2023-03-03T15:05:17;101335.56;;;13.39;46.64
58658;BME280;44428;45.630;13.786;2023-03-03T15:08:06;101355.22;;;13.23;46.43
58658;BME280;44428;45.630;13.786;2023-03-03T15:10:40;101347.47;;;13.20;46.63
58658;BME280;44428;45.630;13.786;2023-03-03T15:16:02;101342.38;;;13.17;46.50
58658;BME280;44428;45.630;13.786;2023-03-03T15:18:31;101349.59;;;13.15;46.62
58658;BME280;44428;45.630;13.786;2023-03-03T15:21:02;101351.31;;;13.16;47.02
58658;BME280;44428;45.630;13.786;2023-03-03T15:37:44;101386.72;;;12.38;48.29
58658;BME280;44428;45.630;13.786;2023-03-03T15:40:39;101383.03;;;12.14;48.70
58658;BME280;44428;45.630;13.786;2023-03-03T15:46:14;101383.13;;;11.85;49.33
58658;BME280;44428;45.630;13.786;2023-03-03T15:52:01;101382.59;;;11.66;50.43
58658;BME280;44428;45.630;13.786;2023-03-03T15:55:05;101387.91;;;11.52;50.53
58658;BME280;44428;45.630;13.786;2023-03-03T16:02:57;101384.28;;;11.67;50.52
58658;BME280;44428;45.630;13.786;2023-03-03T16:05:34;101392.59;;;11.75;50.40
58658;BME280;44428;45.630;13.786;2023-03-03T16:08:11;101391.66;;;11.76;49.16
58658;BME280;44428;45.630;13.786;2023-03-03T16:11:14;101386.00;;;11.68;50.02
58658;BME280;44428;45.630;13.786;2023-03-03T16:25:06;101394.00;;;11.25;51.11
58658;BME280;44428;45.630;13.786;2023-03-03T16:28:00;101386.28;;;11.08;51.46
58658;BME280;44428;45.630;13.786;2023-03-03T16:33:37;101384.00;;;10.87;52.10
58658;BME280;44428;45.630;13.786;2023-03-03T16:36:29;101391.88;;;10.73;52.41
58658;BME280;44428;45.630;13.786;2023-03-03T16:39:18;101389.03;;;10.62;52.23
58658;BME280;44428;45.630;13.786;2023-03-03T16:42:35;101388.06;;;10.48;52.85
58658;BME280;44428;45.630;13.786;2023-03-03T16:56:19;101398.09;;;10.12;54.84
58658;BME280;44428;45.630;13.786;2023-03-03T17:07:26;101430.06;;;9.91;56.20
58658;BME280;44428;45.630;13.786;2023-03-03T17:10:21;101412.88;;;9.84;56.09
58658;BME280;44428;45.630;13.786;2023-03-03T17:16:29;101416.94;;;9.74;56.48
58658;BME280;44428;45.630;13.786;2023-03-03T17:19:20;101436.88;;;9.63;57.08
58658;BME280;44428;45.630;13.786;2023-03-03T17:22:03;101432.53;;;9.62;57.16
58658;BME280;44428;45.630;13.786;2023-03-03T17:24:44;101425.13;;;9.53;57.09
58658;BME280;44428;45.630;13.786;2023-03-03T17:27:39;101430.41;;;9.53;57.16
58658;BME280;44428;45.630;13.786;2023-03-03T17:30:19;101441.03;;;9.52;57.00
58658;BME280;44428;45.630;13.786;2023-03-03T17:38:50;101462.72;;;9.41;57.27
58658;BME280;44428;45.630;13.786;2023-03-03T17:46:59;101463.34;;;9.29;57.37
58658;BME280;44428;45.630;13.786;2023-03-03T17:49:53;101472.19;;;9.28;57.04
58658;BME280;44428;45.630;13.786;2023-03-03T17:52:45;101476.94;;;9.21;57.46